Decoded Metar for UUYY (SYKTYVKAR in RUSSIA) (IATA:SCW) | Meteo·Mobile Aviation Weather
aviador You're here:

UUYY Decoded Metar

SYKTYVKAR in RUSSIA
Report Time2019-07-16 12:30:00
UTC Time2019-07-16 12:45:37
Flight Rules vfr VFR
Wind320° at 6 kt
W.Decomp.*RWY 01: 2.4 kt HW 5.5 kt LCW
Visibility9999 m
Phenomena:N/A
Clouds:Scattered 040 Hf
Expected CloudBase > 3,600 ft AGL from Temp-Dew spread
CeilingNone
Temp20°C (ISA +6)
Dew Point11°C (56% RH)
AAT18.1°C
QNH1006 hPa
Density Alt1,480 ft
Elevation390 ft
Report Wrong Elevation
Raw Report
METAR UUYY 161230Z 32003MPS 280V020 9999 SCT040 20/11 Q1006
R36/CLRD61 NOSIG RMK QFE745/0994=

Extra information for UUYY:More info

Metar Taf Metar & Taf Last 4 Metars F.Rules Stats Wind Profile Meteogram Temp Stats Airport Information Weather charts Add Link Nearby VenuesMetar ALERT Operation Metar Decoded Social comments